sensor_id;sensor_type;location;lat;lon;timestamp;temperature;humidity
10512;DHT22;5304;48.604;2.096;2023-03-14T00:02:32;10.20;99.90
10512;DHT22;5304;48.604;2.096;2023-03-14T00:05:16;10.30;99.90
10512;DHT22;5304;48.604;2.096;2023-03-14T00:08:01;10.20;99.90
10512;DHT22;5304;48.604;2.096;2023-03-14T00:10:45;10.20;99.90
10512;DHT22;5304;48.604;2.096;2023-03-14T00:13:30;10.20;99.90
10512;DHT22;5304;48.604;2.096;2023-03-14T00:16:14;10.10;99.90
10512;DHT22;5304;48.604;2.096;2023-03-14T00:19:00;10.10;99.90
10512;DHT22;5304;48.604;2.096;2023-03-14T00:21:46;10.10;99.90
10512;DHT22;5304;48.604;2.096;2023-03-14T00:24:30;10.10;99.90
10512;DHT22;5304;48.604;2.096;2023-03-14T00:27:14;10.10;99.90
10512;DHT22;5304;48.604;2.096;2023-03-14T00:29:59;10.10;99.90
10512;DHT22;5304;48.604;2.096;2023-03-14T00:32:43;10.20;99.90
10512;DHT22;5304;48.604;2.096;2023-03-14T00:35:28;10.20;99.90
10512;DHT22;5304;48.604;2.096;2023-03-14T00:38:13;10.20;99.90
10512;DHT22;5304;48.604;2.096;2023-03-14T00:40:57;10.20;99.90
10512;DHT22;5304;48.604;2.096;2023-03-14T00:43:42;10.20;99.90
10512;DHT22;5304;48.604;2.096;2023-03-14T00:46:26;10.20;99.90
10512;DHT22;5304;48.604;2.096;2023-03-14T00:49:11;10.20;99.90
10512;DHT22;5304;48.604;2.096;2023-03-14T00:51:55;10.30;99.90
10512;DHT22;5304;48.604;2.096;2023-03-14T00:54:40;10.30;99.90
10512;DHT22;5304;48.604;2.096;2023-03-14T00:57:24;10.30;99.90
10512;DHT22;5304;48.604;2.096;2023-03-14T01:00:09;10.30;99.90
10512;DHT22;5304;48.604;2.096;2023-03-14T01:02:55;10.30;99.90
10512;DHT22;5304;48.604;2.096;2023-03-14T01:05:40;10.30;99.90
10512;DHT22;5304;48.604;2.096;2023-03-14T01:08:25;10.30;99.90
10512;DHT22;5304;48.604;2.096;2023-03-14T01:11:11;10.30;99.90
10512;DHT22;5304;48.604;2.096;2023-03-14T01:13:57;10.30;99.90
10512;DHT22;5304;48.604;2.096;2023-03-14T01:16:41;10.30;99.90
10512;DHT22;5304;48.604;2.096;2023-03-14T01:19:27;10.30;99.90
10512;DHT22;5304;48.604;2.096;2023-03-14T01:22:11;10.30;99.90
10512;DHT22;5304;48.604;2.096;2023-03-14T01:24:56;10.30;99.90
10512;DHT22;5304;48.604;2.096;2023-03-14T01:27:40;10.30;99.90
10512;DHT22;5304;48.604;2.096;2023-03-14T01:30:25;10.30;99.90
10512;DHT22;5304;48.604;2.096;2023-03-14T01:33:09;10.30;99.90
10512;DHT22;5304;48.604;2.096;2023-03-14T01:35:55;10.20;99.90
10512;DHT22;5304;48.604;2.096;2023-03-14T01:38:40;10.20;99.90
10512;DHT22;5304;48.604;2.096;2023-03-14T01:41:25;10.20;99.90
10512;DHT22;5304;48.604;2.096;2023-03-14T01:44:11;10.20;99.90
10512;DHT22;5304;48.604;2.096;2023-03-14T01:46:56;10.20;99.90
10512;DHT22;5304;48.604;2.096;2023-03-14T01:49:41;10.20;99.90
10512;DHT22;5304;48.604;2.096;2023-03-14T01:52:36;10.20;99.90
10512;DHT22;5304;48.604;2.096;2023-03-14T01:55:23;10.20;99.90
10512;DHT22;5304;48.604;2.096;2023-03-14T01:58:09;10.20;99.90
10512;DHT22;5304;48.604;2.096;2023-03-14T02:00:56;10.20;99.90
10512;DHT22;5304;48.604;2.096;2023-03-14T02:03:58;10.20;99.90
10512;DHT22;5304;48.604;2.096;2023-03-14T02:06:54;10.20;99.90
10512;DHT22;5304;48.604;2.096;2023-03-14T02:09:41;10.20;99.90
10512;DHT22;5304;48.604;2.096;2023-03-14T02:12:27;10.20;99.90
10512;DHT22;5304;48.604;2.096;2023-03-14T02:15:12;10.20;99.90
10512;DHT22;5304;48.604;2.096;2023-03-14T02:17:58;10.20;99.90
10512;DHT22;5304;48.604;2.096;2023-03-14T02:21:11;10.20;99.90
10512;DHT22;5304;48.604;2.096;2023-03-14T02:24:15;10.20;99.90
10512;DHT22;5304;48.604;2.096;2023-03-14T02:27:09;10.30;99.90
10512;DHT22;5304;48.604;2.096;2023-03-14T02:29:57;10.30;99.90
10512;DHT22;5304;48.604;2.096;2023-03-14T02:32:49;10.30;99.90
10512;DHT22;5304;48.604;2.096;2023-03-14T02:35:43;10.30;99.90
10512;DHT22;5304;48.604;2.096;2023-03-14T02:41:50;10.30;99.90
10512;DHT22;5304;48.604;2.096;2023-03-14T02:44:34;10.30;99.90
10512;DHT22;5304;48.604;2.096;2023-03-14T02:47:25;10.30;99.90
10512;DHT22;5304;48.604;2.096;2023-03-14T02:50:14;10.40;99.90
10512;DHT22;5304;48.604;2.096;2023-03-14T02:53:00;10.30;99.90
10512;DHT22;5304;48.604;2.096;2023-03-14T02:55:46;10.40;99.90
10512;DHT22;5304;48.604;2.096;2023-03-14T02:58:31;10.30;99.90
10512;DHT22;5304;48.604;2.096;2023-03-14T03:01:15;10.40;99.90
10512;DHT22;5304;48.604;2.096;2023-03-14T03:03:59;10.40;99.90
10512;DHT22;5304;48.604;2.096;2023-03-14T03:06:44;10.40;99.90
10512;DHT22;5304;48.604;2.096;2023-03-14T03:09:29;10.40;99.90
10512;DHT22;5304;48.604;2.096;2023-03-14T03:12:13;10.40;99.90
10512;DHT22;5304;48.604;2.096;2023-03-14T03:14:59;10.50;99.90
10512;DHT22;5304;48.604;2.096;2023-03-14T03:17:44;10.40;99.90
10512;DHT22;5304;48.604;2.096;2023-03-14T03:20:29;10.40;99.90
10512;DHT22;5304;48.604;2.096;2023-03-14T03:23:13;10.40;99.90
10512;DHT22;5304;48.604;2.096;2023-03-14T03:25:58;10.40;99.90
10512;DHT22;5304;48.604;2.096;2023-03-14T03:28:42;10.40;99.90
10512;DHT22;5304;48.604;2.096;2023-03-14T03:31:27;10.50;99.90
10512;DHT22;5304;48.604;2.096;2023-03-14T03:34:13;10.50;99.90
10512;DHT22;5304;48.604;2.096;2023-03-14T03:36:58;10.50;99.90
10512;DHT22;5304;48.604;2.096;2023-03-14T03:39:42;10.40;99.90
10512;DHT22;5304;48.604;2.096;2023-03-14T03:42:27;10.40;99.90
10512;DHT22;5304;48.604;2.096;2023-03-14T03:45:11;10.50;99.90
10512;DHT22;5304;48.604;2.096;2023-03-14T03:47:56;10.50;99.90
10512;DHT22;5304;48.604;2.096;2023-03-14T03:50:46;10.50;99.90
10512;DHT22;5304;48.604;2.096;2023-03-14T03:53:31;10.50;99.90
10512;DHT22;5304;48.604;2.096;2023-03-14T03:56:15;10.50;99.90
10512;DHT22;5304;48.604;2.096;2023-03-14T03:59:00;10.50;99.90
10512;DHT22;5304;48.604;2.096;2023-03-14T04:01:46;10.40;99.90
10512;DHT22;5304;48.604;2.096;2023-03-14T04:04:30;10.40;99.90
10512;DHT22;5304;48.604;2.096;2023-03-14T04:07:15;10.40;99.90
10512;DHT22;5304;48.604;2.096;2023-03-14T04:09:59;10.40;99.90
10512;DHT22;5304;48.604;2.096;2023-03-14T04:12:43;10.40;99.90
10512;DHT22;5304;48.604;2.096;2023-03-14T04:15:28;10.40;99.90
10512;DHT22;5304;48.604;2.096;2023-03-14T04:18:12;10.40;99.90
10512;DHT22;5304;48.604;2.096;2023-03-14T04:20:57;10.30;99.90
10512;DHT22;5304;48.604;2.096;2023-03-14T04:23:44;10.40;99.90
10512;DHT22;5304;48.604;2.096;2023-03-14T04:26:29;10.30;99.90
10512;DHT22;5304;48.604;2.096;2023-03-14T04:29:13;10.40;99.90
10512;DHT22;5304;48.604;2.096;2023-03-14T04:31:57;10.40;99.90
10512;DHT22;5304;48.604;2.096;2023-03-14T04:34:42;10.40;99.90
10512;DHT22;5304;48.604;2.096;2023-03-14T04:37:26;10.40;99.90
10512;DHT22;5304;48.604;2.096;2023-03-14T04:40:11;10.40;99.90
10512;DHT22;5304;48.604;2.096;2023-03-14T04:42:56;10.40;99.90
10512;DHT22;5304;48.604;2.096;2023-03-14T04:45:43;10.40;99.90
10512;DHT22;5304;48.604;2.096;2023-03-14T04:48:28;10.40;99.90
10512;DHT22;5304;48.604;2.096;2023-03-14T04:51:12;10.40;99.90
10512;DHT22;5304;48.604;2.096;2023-03-14T04:53:57;10.30;99.90
10512;DHT22;5304;48.604;2.096;2023-03-14T04:56:42;10.00;99.90
10512;DHT22;5304;48.604;2.096;2023-03-14T04:59:26;9.90;99.90
10512;DHT22;5304;48.604;2.096;2023-03-14T05:02:10;9.80;99.90
10512;DHT22;5304;48.604;2.096;2023-03-14T05:04:54;9.70;99.90
10512;DHT22;5304;48.604;2.096;2023-03-14T05:07:39;9.50;99.90
10512;DHT22;5304;48.604;2.096;2023-03-14T05:10:23;9.30;99.90
10512;DHT22;5304;48.604;2.096;2023-03-14T05:13:08;9.20;99.90
10512;DHT22;5304;48.604;2.096;2023-03-14T05:15:52;9.10;99.90
10512;DHT22;5304;48.604;2.096;2023-03-14T05:18:37;9.10;99.90
10512;DHT22;5304;48.604;2.096;2023-03-14T05:21:22;9.00;99.90
10512;DHT22;5304;48.604;2.096;2023-03-14T05:24:06;9.00;99.90
10512;DHT22;5304;48.604;2.096;2023-03-14T05:26:51;9.00;99.90
10512;DHT22;5304;48.604;2.096;2023-03-14T05:29:35;8.90;99.90
10512;DHT22;5304;48.604;2.096;2023-03-14T05:32:19;8.90;99.90
10512;DHT22;5304;48.604;2.096;2023-03-14T05:35:04;8.80;99.90
10512;DHT22;5304;48.604;2.096;2023-03-14T05:37:48;8.70;99.90
10512;DHT22;5304;48.604;2.096;2023-03-14T05:40:34;8.60;99.90
10512;DHT22;5304;48.604;2.096;2023-03-14T05:43:18;8.50;99.90
10512;DHT22;5304;48.604;2.096;2023-03-14T05:46:02;8.40;99.90
10512;DHT22;5304;48.604;2.096;2023-03-14T05:48:47;8.30;99.90
10512;DHT22;5304;48.604;2.096;2023-03-14T05:51:31;8.20;99.90
10512;DHT22;5304;48.604;2.096;2023-03-14T05:54:15;8.20;99.90
10512;DHT22;5304;48.604;2.096;2023-03-14T05:56:59;8.10;99.90
10512;DHT22;5304;48.604;2.096;2023-03-14T05:59:45;8.10;99.90
10512;DHT22;5304;48.604;2.096;2023-03-14T06:02:30;8.10;99.90
10512;DHT22;5304;48.604;2.096;2023-03-14T06:05:14;8.10;99.90
10512;DHT22;5304;48.604;2.096;2023-03-14T06:07:58;8.00;99.90
10512;DHT22;5304;48.604;2.096;2023-03-14T06:10:43;8.00;99.90
10512;DHT22;5304;48.604;2.096;2023-03-14T06:13:27;8.00;99.90
10512;DHT22;5304;48.604;2.096;2023-03-14T06:16:12;7.90;99.90
10512;DHT22;5304;48.604;2.096;2023-03-14T06:18:57;7.90;99.90
10512;DHT22;5304;48.604;2.096;2023-03-14T06:21:41;7.90;99.90
10512;DHT22;5304;48.604;2.096;2023-03-14T06:24:26;7.80;99.90
10512;DHT22;5304;48.604;2.096;2023-03-14T06:27:10;7.80;99.90
10512;DHT22;5304;48.604;2.096;2023-03-14T06:29:55;7.80;99.90
10512;DHT22;5304;48.604;2.096;2023-03-14T06:32:39;7.80;99.90
10512;DHT22;5304;48.604;2.096;2023-03-14T06:35:23;7.80;99.90
10512;DHT22;5304;48.604;2.096;2023-03-14T06:38:08;7.80;99.90
10512;DHT22;5304;48.604;2.096;2023-03-14T06:40:52;7.80;99.90
10512;DHT22;5304;48.604;2.096;2023-03-14T06:43:36;7.90;99.90
10512;DHT22;5304;48.604;2.096;2023-03-14T06:46:20;7.90;99.90
10512;DHT22;5304;48.604;2.096;2023-03-14T06:49:05;7.90;99.90
10512;DHT22;5304;48.604;2.096;2023-03-14T06:51:49;7.90;99.90
10512;DHT22;5304;48.604;2.096;2023-03-14T06:54:34;7.90;99.90
10512;DHT22;5304;48.604;2.096;2023-03-14T06:57:18;7.90;99.90
10512;DHT22;5304;48.604;2.096;2023-03-14T07:00:03;7.90;99.90
10512;DHT22;5304;48.604;2.096;2023-03-14T07:02:49;7.90;99.90
10512;DHT22;5304;48.604;2.096;2023-03-14T07:05:33;8.00;99.90
10512;DHT22;5304;48.604;2.096;2023-03-14T07:08:17;8.00;99.90
10512;DHT22;5304;48.604;2.096;2023-03-14T07:11:02;8.10;99.90
10512;DHT22;5304;48.604;2.096;2023-03-14T07:13:46;8.10;99.90
10512;DHT22;5304;48.604;2.096;2023-03-14T07:16:31;8.10;99.90
10512;DHT22;5304;48.604;2.096;2023-03-14T07:19:16;8.00;99.90
10512;DHT22;5304;48.604;2.096;2023-03-14T07:22:01;8.00;99.90
10512;DHT22;5304;48.604;2.096;2023-03-14T07:24:45;8.10;99.90
10512;DHT22;5304;48.604;2.096;2023-03-14T07:27:29;8.10;99.90
10512;DHT22;5304;48.604;2.096;2023-03-14T07:30:14;8.10;99.90
10512;DHT22;5304;48.604;2.096;2023-03-14T07:32:58;8.30;99.90
10512;DHT22;5304;48.604;2.096;2023-03-14T07:35:49;8.50;99.90
10512;DHT22;5304;48.604;2.096;2023-03-14T07:38:33;8.70;99.90
10512;DHT22;5304;48.604;2.096;2023-03-14T07:41:18;8.70;99.90
10512;DHT22;5304;48.604;2.096;2023-03-14T07:44:02;8.80;99.90
10512;DHT22;5304;48.604;2.096;2023-03-14T07:46:47;8.90;99.90
10512;DHT22;5304;48.604;2.096;2023-03-14T07:49:31;9.20;99.90
10512;DHT22;5304;48.604;2.096;2023-03-14T07:52:16;9.60;99.90
10512;DHT22;5304;48.604;2.096;2023-03-14T07:55:00;9.90;99.90
10512;DHT22;5304;48.604;2.096;2023-03-14T07:57:44;10.40;99.90
10512;DHT22;5304;48.604;2.096;2023-03-14T08:00:29;10.90;99.90
10512;DHT22;5304;48.604;2.096;2023-03-14T08:03:13;11.20;99.90
10512;DHT22;5304;48.604;2.096;2023-03-14T08:05:58;10.80;99.90
10512;DHT22;5304;48.604;2.096;2023-03-14T08:08:42;10.50;99.90
10512;DHT22;5304;48.604;2.096;2023-03-14T08:11:27;10.10;99.90
10512;DHT22;5304;48.604;2.096;2023-03-14T08:14:11;9.80;99.90
10512;DHT22;5304;48.604;2.096;2023-03-14T08:16:56;9.80;99.90
10512;DHT22;5304;48.604;2.096;2023-03-14T08:19:43;9.60;99.90
10512;DHT22;5304;48.604;2.096;2023-03-14T08:22:28;9.40;99.90
10512;DHT22;5304;48.604;2.096;2023-03-14T08:25:12;9.40;99.90
10512;DHT22;5304;48.604;2.096;2023-03-14T08:27:56;9.50;99.90
10512;DHT22;5304;48.604;2.096;2023-03-14T08:30:41;9.40;99.90
10512;DHT22;5304;48.604;2.096;2023-03-14T08:33:26;9.50;99.90
10512;DHT22;5304;48.604;2.096;2023-03-14T08:36:11;9.60;99.90
10512;DHT22;5304;48.604;2.096;2023-03-14T08:38:56;9.90;99.90
10512;DHT22;5304;48.604;2.096;2023-03-14T08:41:41;9.80;99.90
10512;DHT22;5304;48.604;2.096;2023-03-14T08:44:27;9.70;99.90
10512;DHT22;5304;48.604;2.096;2023-03-14T08:47:11;9.90;99.90
10512;DHT22;5304;48.604;2.096;2023-03-14T08:49:56;10.40;99.90
10512;DHT22;5304;48.604;2.096;2023-03-14T08:52:40;10.70;99.90
10512;DHT22;5304;48.604;2.096;2023-03-14T08:55:26;11.10;99.90
10512;DHT22;5304;48.604;2.096;2023-03-14T08:58:11;10.90;99.90
10512;DHT22;5304;48.604;2.096;2023-03-14T09:00:56;10.50;99.90
10512;DHT22;5304;48.604;2.096;2023-03-14T09:03:40;10.20;99.90
10512;DHT22;5304;48.604;2.096;2023-03-14T09:06:25;10.10;99.90
10512;DHT22;5304;48.604;2.096;2023-03-14T09:09:09;10.60;99.90
10512;DHT22;5304;48.604;2.096;2023-03-14T09:11:53;11.40;99.90
10512;DHT22;5304;48.604;2.096;2023-03-14T09:14:38;12.00;99.90
10512;DHT22;5304;48.604;2.096;2023-03-14T09:17:23;12.50;99.90
10512;DHT22;5304;48.604;2.096;2023-03-14T09:20:08;12.10;99.90
10512;DHT22;5304;48.604;2.096;2023-03-14T09:22:53;11.80;99.90
10512;DHT22;5304;48.604;2.096;2023-03-14T09:25:37;11.70;99.90
10512;DHT22;5304;48.604;2.096;2023-03-14T09:28:21;11.60;99.90
10512;DHT22;5304;48.604;2.096;2023-03-14T09:31:08;10.90;99.90
10512;DHT22;5304;48.604;2.096;2023-03-14T09:33:53;10.60;99.90
10512;DHT22;5304;48.604;2.096;2023-03-14T09:36:37;10.30;99.90
10512;DHT22;5304;48.604;2.096;2023-03-14T09:39:24;10.40;99.90
10512;DHT22;5304;48.604;2.096;2023-03-14T09:42:14;10.80;99.90
10512;DHT22;5304;48.604;2.096;2023-03-14T09:45:05;11.00;99.90
10512;DHT22;5304;48.604;2.096;2023-03-14T09:47:51;10.90;99.90
10512;DHT22;5304;48.604;2.096;2023-03-14T09:50:43;10.70;99.90
10512;DHT22;5304;48.604;2.096;2023-03-14T09:53:33;10.90;99.90
10512;DHT22;5304;48.604;2.096;2023-03-14T09:59:12;11.50;99.90
10512;DHT22;5304;48.604;2.096;2023-03-14T10:02:00;11.50;99.90
10512;DHT22;5304;48.604;2.096;2023-03-14T10:04:50;11.90;99.90
10512;DHT22;5304;48.604;2.096;2023-03-14T10:07:35;12.00;99.90
10512;DHT22;5304;48.604;2.096;2023-03-14T10:10:22;11.80;99.90
10512;DHT22;5304;48.604;2.096;2023-03-14T10:13:23;11.50;99.90
10512;DHT22;5304;48.604;2.096;2023-03-14T10:16:11;10.90;99.90
10512;DHT22;5304;48.604;2.096;2023-03-14T10:19:14;10.50;99.90
10512;DHT22;5304;48.604;2.096;2023-03-14T10:22:01;10.40;99.90
10512;DHT22;5304;48.604;2.096;2023-03-14T10:24:52;10.40;99.90
10512;DHT22;5304;48.604;2.096;2023-03-14T10:27:37;10.40;99.90
10512;DHT22;5304;48.604;2.096;2023-03-14T10:36:32;10.90;99.90
10512;DHT22;5304;48.604;2.096;2023-03-14T10:42:25;11.20;99.90
10512;DHT22;5304;48.604;2.096;2023-03-14T10:45:36;11.00;99.90
10512;DHT22;5304;48.604;2.096;2023-03-14T10:48:31;10.80;99.90
10512;DHT22;5304;48.604;2.096;2023-03-14T10:51:30;10.40;99.90
10512;DHT22;5304;48.604;2.096;2023-03-14T10:54:20;10.70;99.90
10512;DHT22;5304;48.604;2.096;2023-03-14T10:57:05;10.80;99.90
10512;DHT22;5304;48.604;2.096;2023-03-14T10:59:51;11.00;99.90
10512;DHT22;5304;48.604;2.096;2023-03-14T11:02:49;11.00;99.90
10512;DHT22;5304;48.604;2.096;2023-03-14T11:05:53;11.40;99.90
10512;DHT22;5304;48.604;2.096;2023-03-14T11:09:11;11.70;99.90
10512;DHT22;5304;48.604;2.096;2023-03-14T11:12:12;11.60;99.90
10512;DHT22;5304;48.604;2.096;2023-03-14T11:21:32;11.80;99.90
10512;DHT22;5304;48.604;2.096;2023-03-14T11:33:38;11.80;99.90
10512;DHT22;5304;48.604;2.096;2023-03-14T11:36:36;12.00;99.90
10512;DHT22;5304;48.604;2.096;2023-03-14T11:39:23;12.40;99.90
10512;DHT22;5304;48.604;2.096;2023-03-14T11:42:12;12.50;99.90
10512;DHT22;5304;48.604;2.096;2023-03-14T11:45:00;12.50;99.90
10512;DHT22;5304;48.604;2.096;2023-03-14T11:48:05;12.40;99.90
10512;DHT22;5304;48.604;2.096;2023-03-14T11:50:53;12.50;99.90
10512;DHT22;5304;48.604;2.096;2023-03-14T11:53:53;12.80;99.90
10512;DHT22;5304;48.604;2.096;2023-03-14T11:56:54;12.70;99.90
10512;DHT22;5304;48.604;2.096;2023-03-14T11:59:47;12.70;99.90
10512;DHT22;5304;48.604;2.096;2023-03-14T12:02:40;12.70;99.90
10512;DHT22;5304;48.604;2.096;2023-03-14T12:05:58;12.50;99.90
10512;DHT22;5304;48.604;2.096;2023-03-14T12:08:56;12.40;99.90
10512;DHT22;5304;48.604;2.096;2023-03-14T12:14:35;12.90;99.90
10512;DHT22;5304;48.604;2.096;2023-03-14T12:17:24;12.60;99.90
10512;DHT22;5304;48.604;2.096;2023-03-14T12:20:18;12.50;99.90
10512;DHT22;5304;48.604;2.096;2023-03-14T12:23:05;12.50;99.90
10512;DHT22;5304;48.604;2.096;2023-03-14T12:26:12;12.20;99.90
10512;DHT22;5304;48.604;2.096;2023-03-14T12:31:48;11.70;99.90
10512;DHT22;5304;48.604;2.096;2023-03-14T12:34:34;11.70;99.90
10512;DHT22;5304;48.604;2.096;2023-03-14T12:37:45;11.70;99.90
10512;DHT22;5304;48.604;2.096;2023-03-14T12:40:33;11.70;99.90
10512;DHT22;5304;48.604;2.096;2023-03-14T12:43:30;11.50;99.90
10512;DHT22;5304;48.604;2.096;2023-03-14T12:46:23;11.20;99.90
10512;DHT22;5304;48.604;2.096;2023-03-14T12:49:08;11.00;99.90
10512;DHT22;5304;48.604;2.096;2023-03-14T12:51:59;11.00;99.90
10512;DHT22;5304;48.604;2.096;2023-03-14T12:55:07;10.70;99.90
10512;DHT22;5304;48.604;2.096;2023-03-14T12:58:08;10.40;99.90
10512;DHT22;5304;48.604;2.096;2023-03-14T13:01:00;10.20;99.90
10512;DHT22;5304;48.604;2.096;2023-03-14T13:16:00;10.10;99.90
10512;DHT22;5304;48.604;2.096;2023-03-14T13:19:00;10.00;99.90
10512;DHT22;5304;48.604;2.096;2023-03-14T13:21:46;10.10;99.90
10512;DHT22;5304;48.604;2.096;2023-03-14T13:24:33;10.40;99.90
10512;DHT22;5304;48.604;2.096;2023-03-14T13:27:20;10.70;99.90
10512;DHT22;5304;48.604;2.096;2023-03-14T13:33:03;11.40;99.90
10512;DHT22;5304;48.604;2.096;2023-03-14T13:35:55;11.60;99.90
10512;DHT22;5304;48.604;2.096;2023-03-14T13:38:40;11.80;99.90
10512;DHT22;5304;48.604;2.096;2023-03-14T13:41:25;11.90;99.90
10512;DHT22;5304;48.604;2.096;2023-03-14T13:44:16;11.80;99.90
10512;DHT22;5304;48.604;2.096;2023-03-14T13:47:03;11.60;99.90
10512;DHT22;5304;48.604;2.096;2023-03-14T13:49:49;11.80;99.90
10512;DHT22;5304;48.604;2.096;2023-03-14T13:52:38;11.90;99.90
10512;DHT22;5304;48.604;2.096;2023-03-14T13:55:22;12.20;99.90
10512;DHT22;5304;48.604;2.096;2023-03-14T13:58:22;12.10;99.90
10512;DHT22;5304;48.604;2.096;2023-03-14T14:01:19;11.80;99.90
10512;DHT22;5304;48.604;2.096;2023-03-14T14:04:13;11.60;99.90
10512;DHT22;5304;48.604;2.096;2023-03-14T14:07:07;11.40;99.90
10512;DHT22;5304;48.604;2.096;2023-03-14T14:09:54;11.20;99.90
10512;DHT22;5304;48.604;2.096;2023-03-14T14:12:49;10.70;99.90
10512;DHT22;5304;48.604;2.096;2023-03-14T14:15:43;10.00;99.90
10512;DHT22;5304;48.604;2.096;2023-03-14T14:18:28;9.50;99.90
10512;DHT22;5304;48.604;2.096;2023-03-14T14:21:14;9.30;99.90
10512;DHT22;5304;48.604;2.096;2023-03-14T14:23:59;9.30;99.90
10512;DHT22;5304;48.604;2.096;2023-03-14T14:26:55;9.10;99.90
10512;DHT22;5304;48.604;2.096;2023-03-14T14:29:44;9.10;99.90
10512;DHT22;5304;48.604;2.096;2023-03-14T14:32:40;9.10;99.90
10512;DHT22;5304;48.604;2.096;2023-03-14T14:38:16;9.30;99.90
10512;DHT22;5304;48.604;2.096;2023-03-14T14:41:01;9.70;99.90
10512;DHT22;5304;48.604;2.096;2023-03-14T14:43:47;9.70;99.90
10512;DHT22;5304;48.604;2.096;2023-03-14T14:46:33;9.80;99.90
10512;DHT22;5304;48.604;2.096;2023-03-14T14:49:19;9.80;99.90
10512;DHT22;5304;48.604;2.096;2023-03-14T14:54:58;10.10;99.90
10512;DHT22;5304;48.604;2.096;2023-03-14T14:57:50;10.20;99.90
10512;DHT22;5304;48.604;2.096;2023-03-14T15:00:39;10.20;99.90
10512;DHT22;5304;48.604;2.096;2023-03-14T15:03:27;10.10;99.90
10512;DHT22;5304;48.604;2.096;2023-03-14T15:06:14;10.00;99.90
10512;DHT22;5304;48.604;2.096;2023-03-14T15:08:59;10.10;99.90
10512;DHT22;5304;48.604;2.096;2023-03-14T15:11:47;10.30;99.90
10512;DHT22;5304;48.604;2.096;2023-03-14T15:14:31;10.40;99.90
10512;DHT22;5304;48.604;2.096;2023-03-14T15:17:16;10.50;99.90
10512;DHT22;5304;48.604;2.096;2023-03-14T15:20:00;10.30;99.90
10512;DHT22;5304;48.604;2.096;2023-03-14T15:22:46;10.30;99.90
10512;DHT22;5304;48.604;2.096;2023-03-14T15:25:30;10.10;99.90
10512;DHT22;5304;48.604;2.096;2023-03-14T15:28:19;10.10;99.90
10512;DHT22;5304;48.604;2.096;2023-03-14T15:31:04;10.30;99.90
10512;DHT22;5304;48.604;2.096;2023-03-14T15:33:49;10.30;99.90
10512;DHT22;5304;48.604;2.096;2023-03-14T15:36:34;10.30;99.90
10512;DHT22;5304;48.604;2.096;2023-03-14T15:39:19;10.20;99.90
10512;DHT22;5304;48.604;2.096;2023-03-14T15:42:04;10.00;99.90
10512;DHT22;5304;48.604;2.096;2023-03-14T15:44:48;9.90;99.90
10512;DHT22;5304;48.604;2.096;2023-03-14T15:47:32;9.90;99.90
10512;DHT22;5304;48.604;2.096;2023-03-14T15:50:17;9.90;99.90
10512;DHT22;5304;48.604;2.096;2023-03-14T15:53:03;9.80;99.90
10512;DHT22;5304;48.604;2.096;2023-03-14T15:55:48;9.00;99.90
10512;DHT22;5304;48.604;2.096;2023-03-14T15:58:32;8.60;99.90
10512;DHT22;5304;48.604;2.096;2023-03-14T16:01:17;8.20;99.90
10512;DHT22;5304;48.604;2.096;2023-03-14T16:04:02;7.90;99.90
10512;DHT22;5304;48.604;2.096;2023-03-14T16:06:46;7.90;99.90
10512;DHT22;5304;48.604;2.096;2023-03-14T16:09:31;7.90;99.90
10512;DHT22;5304;48.604;2.096;2023-03-14T16:12:15;7.80;99.90
10512;DHT22;5304;48.604;2.096;2023-03-14T16:15:00;7.90;99.90
10512;DHT22;5304;48.604;2.096;2023-03-14T16:17:45;8.10;99.90
10512;DHT22;5304;48.604;2.096;2023-03-14T16:20:30;8.10;99.90
10512;DHT22;5304;48.604;2.096;2023-03-14T16:23:14;8.10;99.90
10512;DHT22;5304;48.604;2.096;2023-03-14T16:26:06;8.10;99.90
10512;DHT22;5304;48.604;2.096;2023-03-14T16:28:51;8.10;99.90
10512;DHT22;5304;48.604;2.096;2023-03-14T16:31:36;8.20;99.90
10512;DHT22;5304;48.604;2.096;2023-03-14T16:34:25;8.40;99.90
10512;DHT22;5304;48.604;2.096;2023-03-14T16:37:10;8.50;99.90
10512;DHT22;5304;48.604;2.096;2023-03-14T16:39:55;8.60;99.90
10512;DHT22;5304;48.604;2.096;2023-03-14T16:42:40;8.60;99.90
10512;DHT22;5304;48.604;2.096;2023-03-14T16:45:24;8.50;99.90
10512;DHT22;5304;48.604;2.096;2023-03-14T16:48:08;8.60;99.90
10512;DHT22;5304;48.604;2.096;2023-03-14T16:50:54;8.40;99.90
10512;DHT22;5304;48.604;2.096;2023-03-14T16:53:39;8.40;99.90
10512;DHT22;5304;48.604;2.096;2023-03-14T16:56:23;8.10;99.90
10512;DHT22;5304;48.604;2.096;2023-03-14T16:59:08;8.10;99.90
10512;DHT22;5304;48.604;2.096;2023-03-14T17:01:52;8.10;99.90
10512;DHT22;5304;48.604;2.096;2023-03-14T17:04:39;8.10;99.90
10512;DHT22;5304;48.604;2.096;2023-03-14T17:07:24;8.10;99.90
10512;DHT22;5304;48.604;2.096;2023-03-14T17:10:09;8.10;99.90
10512;DHT22;5304;48.604;2.096;2023-03-14T17:12:54;8.00;99.90
10512;DHT22;5304;48.604;2.096;2023-03-14T17:15:44;7.90;99.90
10512;DHT22;5304;48.604;2.096;2023-03-14T17:18:30;7.90;99.90
10512;DHT22;5304;48.604;2.096;2023-03-14T17:21:15;7.80;99.90
10512;DHT22;5304;48.604;2.096;2023-03-14T17:23:59;7.70;99.90
10512;DHT22;5304;48.604;2.096;2023-03-14T17:26:44;7.70;99.90
10512;DHT22;5304;48.604;2.096;2023-03-14T17:29:28;7.70;99.90
10512;DHT22;5304;48.604;2.096;2023-03-14T17:32:14;7.70;99.90
10512;DHT22;5304;48.604;2.096;2023-03-14T17:34:58;7.70;99.90
10512;DHT22;5304;48.604;2.096;2023-03-14T17:37:43;7.60;99.90
10512;DHT22;5304;48.604;2.096;2023-03-14T17:40:27;7.60;99.90
10512;DHT22;5304;48.604;2.096;2023-03-14T17:43:11;7.50;99.90
10512;DHT22;5304;48.604;2.096;2023-03-14T17:46:00;7.60;99.90
10512;DHT22;5304;48.604;2.096;2023-03-14T17:48:47;7.60;99.90
10512;DHT22;5304;48.604;2.096;2023-03-14T17:51:31;7.60;99.90
10512;DHT22;5304;48.604;2.096;2023-03-14T17:54:16;7.60;99.90
10512;DHT22;5304;48.604;2.096;2023-03-14T17:57:00;7.60;99.90
10512;DHT22;5304;48.604;2.096;2023-03-14T17:59:45;7.60;99.90
10512;DHT22;5304;48.604;2.096;2023-03-14T18:02:29;7.70;99.90
10512;DHT22;5304;48.604;2.096;2023-03-14T18:05:13;7.70;99.90
10512;DHT22;5304;48.604;2.096;2023-03-14T18:07:58;7.70;99.90
10512;DHT22;5304;48.604;2.096;2023-03-14T18:10:42;7.60;99.90
10512;DHT22;5304;48.604;2.096;2023-03-14T18:13:27;7.70;99.90
10512;DHT22;5304;48.604;2.096;2023-03-14T18:16:12;7.70;99.90
10512;DHT22;5304;48.604;2.096;2023-03-14T18:18:57;7.60;99.90
10512;DHT22;5304;48.604;2.096;2023-03-14T18:21:43;7.50;99.90
10512;DHT22;5304;48.604;2.096;2023-03-14T18:24:28;7.40;99.90
10512;DHT22;5304;48.604;2.096;2023-03-14T18:27:12;7.40;99.90
10512;DHT22;5304;48.604;2.096;2023-03-14T18:29:58;7.30;99.90
10512;DHT22;5304;48.604;2.096;2023-03-14T18:32:43;7.10;99.90
10512;DHT22;5304;48.604;2.096;2023-03-14T18:35:27;7.10;99.90
10512;DHT22;5304;48.604;2.096;2023-03-14T18:38:12;7.00;99.90
10512;DHT22;5304;48.604;2.096;2023-03-14T18:41:05;7.00;99.90
10512;DHT22;5304;48.604;2.096;2023-03-14T18:43:51;6.90;99.90
10512;DHT22;5304;48.604;2.096;2023-03-14T18:46:36;6.80;99.90
10512;DHT22;5304;48.604;2.096;2023-03-14T18:49:21;6.80;99.90
10512;DHT22;5304;48.604;2.096;2023-03-14T18:52:05;6.70;99.90
10512;DHT22;5304;48.604;2.096;2023-03-14T18:54:50;6.80;99.90
10512;DHT22;5304;48.604;2.096;2023-03-14T18:57:35;6.90;99.90